aviador You're here:

LFSN Decoded Metar

NANCY ESSEY in FRANCE
Report Time2018-06-18 05:30:00
UTC Time2018-06-18 05:39:52
Flight Rules vfr VFR
WindVRB at 02 kt
Visibility9999 m
Phenomena:N/A
Clouds:N/A
Expected CloudBase > 1,200 ft AGL from Temp-Dew spread
CeilingNone
Temp16°C (ISA +2)
Dew Point13°C (83% RH)
QNH1023 hPa
Density Alt863 ft
Elevation712 ft
Report Wrong Elevation
Raw Report
METAR LFSN 180530Z AUTO VRB02KT CAVOK 16/13 Q1023=

Extra information for LFSN:More info

Metar Taf Metar & Taf Last 4 Metars F.Rules Stats Wind Profile Meteogram Temp Stats Airport Information Weather charts Add Link Nearby VenuesMetar ALERT Operation Metar Decoded Social comments